Aviation Digital Data Service (ADDS)

Output produced by METARs form (1146 UTC 22 September 2017)
found at http://aviationweather.gov/adds/metars/
 
KSLK 221121Z 2212/2312 05004KT P6SM SKC 
     FM231000 00000KT 5SM BR SKC